Torre De Bel M — CSIO — position and weather

sailwx.info

Track history (hours):
 
Tides and Currents Weather Stations Pressure Air Temp Water Temp Dewpoint Dewpoint Depression Visibility Wind Speed Wind Dir Waves Ship Positions

Torre De Bel M

Last reported at 2014-Oct-01 19:34 UTC. Time now 2014-Oct-31 04:56 UTC.
Position N 38°41' W 009°13'.
Warning: this ship's position is 29 days out of date.

Length 13 m; draft 1.1 m.

Type: Pilot. MMSI: 263671850.

Date/timePositionNaut miles runAvg speedWind from/ knotsBaromVisibWave heightAir tempDewpointWater temp
2014-Oct-01 19:34N 38°41' W 009°13'1 0.1
2014-Oct-01 05:33N 38°42' W 009°14'0 0.0
2014-Oct-01 04:33N 38°42' W 009°14'0 0.0
2014-Oct-01 03:34N 38°42' W 009°14'0 0.0
2014-Oct-01 02:33N 38°42' W 009°14'1 1.4
2014-Oct-01 01:33N 38°41' W 009°13'1 1.4
2014-Oct-01 00:34N 38°42' W 009°14'0 0.1
2014-Sep-30 23:33N 38°42' W 009°14'0 0.1
2014-Sep-30 22:33N 38°42' W 009°14'0 0.0
2014-Sep-30 21:33N 38°42' W 009°14'0 0.0
2014-Sep-30 20:33N 38°42' W 009°14'0 0.0
2014-Sep-30 06:22N 38°42' W 009°14'0 0.0
2014-Sep-30 05:33N 38°42' W 009°14'0 0.0
2014-Sep-30 04:33N 38°42' W 009°14'0 0.0
2014-Sep-30 03:33N 38°42' W 009°14'0 0.0
2014-Sep-30 02:33N 38°42' W 009°14'0 0.0
2014-Sep-30 01:33N 38°42' W 009°14'0 0.0
2014-Sep-30 00:32N 38°42' W 009°14'0 0.0
2014-Sep-29 23:32N 38°42' W 009°14'0 0.0
2014-Sep-29 22:33N 38°42' W 009°14'1 1.0
2014-Sep-29 21:33N 38°41' W 009°13'1 1.0
2014-Sep-29 20:33N 38°42' W 009°14'0 0.0
2014-Sep-29 19:33N 38°42' W 009°14'0 0.3
2014-Sep-29 18:32N 38°42' W 009°14'0 0.3
2014-Sep-29 17:33N 38°42' W 009°14'0 0.0
2014-Sep-29 16:33N 38°42' W 009°14'0 0.0
2014-Sep-29 15:33N 38°42' W 009°14'0 0.0
2014-Sep-29 14:33N 38°42' W 009°14'0 0.0
2014-Sep-29 13:32N 38°42' W 009°14'0 0.0
2014-Sep-29 12:34N 38°42' W 009°14'0 0.0
2014-Sep-29 11:33N 38°42' W 009°14'0 0.0
2014-Sep-29 10:32N 38°42' W 009°14'2 2.2
2014-Sep-29 09:33N 38°41' W 009°12'3 3.2
2014-Sep-29 08:33N 38°42' W 009°08'5 0.2
2014-Sep-28 06:14N 38°42' W 009°14'0 0.0
2014-Sep-28 05:34N 38°42' W 009°14'0 0.0
2014-Sep-27 20:33N 38°42' W 009°14'0 0.0
2014-Sep-27 19:34N 38°42' W 009°14'0 0.0
2014-Sep-27 01:32N 38°42' W 009°14'0 0.0
2014-Sep-27 00:33N 38°42' W 009°14'0 0.0
2014-Sep-26 23:33N 38°42' W 009°14'0 0.0
2014-Sep-26 22:33N 38°42' W 009°14'0 0.2
2014-Sep-26 21:33N 38°42' W 009°14'0 0.2
2014-Sep-26 20:32N 38°42' W 009°14'0 0.0
2014-Sep-26 19:33N 38°42' W 009°14'0 0.0
2014-Sep-26 05:34N 38°41' W 009°14'0 0.3
2014-Sep-26 04:33N 38°42' W 009°14'0 0.0
2014-Sep-26 00:08N 38°42' W 009°14'0 0.0
2014-Sep-25 23:33N 38°42' W 009°14'0 0.0
2014-Sep-25 22:33N 38°42' W 009°14'0 0.0
2014-Sep-25 21:32N 38°42' W 009°14'0 0.0
2014-Sep-25 20:33N 38°42' W 009°14'0 0.0
2014-Sep-25 19:34N 38°42' W 009°14'0 0.0
2014-Sep-25 18:32N 38°42' W 009°14'0 0.0
2014-Sep-25 09:20N 38°42' W 009°14'0 0.0
2014-Sep-25 08:33N 38°42' W 009°14'0 0.0
2014-Sep-25 06:11N 38°42' W 009°14'0 0.0
2014-Sep-25 05:33N 38°42' W 009°14'0 0.0
2014-Sep-24 21:33N 38°42' W 009°14'0 0.0
2014-Sep-24 15:08N 38°42' W 009°14'2 3.7
2014-Sep-24 14:33N 38°41' W 009°12'  
Track history (hours):
 
Tides and Currents Weather Stations Pressure Air Temp Water Temp Dewpoint Dewpoint Depression Visibility Wind Speed Wind Dir Waves Ship Positions

Torre De Bel M

Last reported at 2014-Oct-01 19:34 UTC. Time now 2014-Oct-31 04:56 UTC.
Position N 38°41' W 009°13'.
Warning: this ship's position is 29 days out of date.

Length 13 m; draft 1.1 m.

Type: Pilot. MMSI: 263671850.

Date/timePositionNaut miles runAvg speedWind from/ knotsBaromVisibWave heightAir tempDewpointWater temp
2014-Oct-01 19:34N 38°41' W 009°13'1 0.1
2014-Oct-01 05:33N 38°42' W 009°14'0 0.0
2014-Oct-01 04:33N 38°42' W 009°14'0 0.0
2014-Oct-01 03:34N 38°42' W 009°14'0 0.0
2014-Oct-01 02:33N 38°42' W 009°14'1 1.4
2014-Oct-01 01:33N 38°41' W 009°13'1 1.4
2014-Oct-01 00:34N 38°42' W 009°14'0 0.1
2014-Sep-30 23:33N 38°42' W 009°14'0 0.1
2014-Sep-30 22:33N 38°42' W 009°14'0 0.0
2014-Sep-30 21:33N 38°42' W 009°14'0 0.0
2014-Sep-30 20:33N 38°42' W 009°14'0 0.0
2014-Sep-30 06:22N 38°42' W 009°14'0 0.0
2014-Sep-30 05:33N 38°42' W 009°14'0 0.0
2014-Sep-30 04:33N 38°42' W 009°14'0 0.0
2014-Sep-30 03:33N 38°42' W 009°14'0 0.0
2014-Sep-30 02:33N 38°42' W 009°14'0 0.0
2014-Sep-30 01:33N 38°42' W 009°14'0 0.0
2014-Sep-30 00:32N 38°42' W 009°14'0 0.0
2014-Sep-29 23:32N 38°42' W 009°14'0 0.0
2014-Sep-29 22:33N 38°42' W 009°14'1 1.0
2014-Sep-29 21:33N 38°41' W 009°13'1 1.0
2014-Sep-29 20:33N 38°42' W 009°14'0 0.0
2014-Sep-29 19:33N 38°42' W 009°14'0 0.3
2014-Sep-29 18:32N 38°42' W 009°14'0 0.3
2014-Sep-29 17:33N 38°42' W 009°14'0 0.0
2014-Sep-29 16:33N 38°42' W 009°14'0 0.0
2014-Sep-29 15:33N 38°42' W 009°14'0 0.0
2014-Sep-29 14:33N 38°42' W 009°14'0 0.0
2014-Sep-29 13:32N 38°42' W 009°14'0 0.0
2014-Sep-29 12:34N 38°42' W 009°14'0 0.0
2014-Sep-29 11:33N 38°42' W 009°14'0 0.0
2014-Sep-29 10:32N 38°42' W 009°14'2 2.2
2014-Sep-29 09:33N 38°41' W 009°12'3 3.2
2014-Sep-29 08:33N 38°42' W 009°08'5 0.2
2014-Sep-28 06:14N 38°42' W 009°14'0 0.0
2014-Sep-28 05:34N 38°42' W 009°14'0 0.0
2014-Sep-27 20:33N 38°42' W 009°14'0 0.0
2014-Sep-27 19:34N 38°42' W 009°14'0 0.0
2014-Sep-27 01:32N 38°42' W 009°14'0 0.0
2014-Sep-27 00:33N 38°42' W 009°14'0 0.0
2014-Sep-26 23:33N 38°42' W 009°14'0 0.0
2014-Sep-26 22:33N 38°42' W 009°14'0 0.2
2014-Sep-26 21:33N 38°42' W 009°14'0 0.2
2014-Sep-26 20:32N 38°42' W 009°14'0 0.0
2014-Sep-26 19:33N 38°42' W 009°14'0 0.0
2014-Sep-26 05:34N 38°41' W 009°14'0 0.3
2014-Sep-26 04:33N 38°42' W 009°14'0 0.0
2014-Sep-26 00:08N 38°42' W 009°14'0 0.0
2014-Sep-25 23:33N 38°42' W 009°14'0 0.0
2014-Sep-25 22:33N 38°42' W 009°14'0 0.0
2014-Sep-25 21:32N 38°42' W 009°14'0 0.0
2014-Sep-25 20:33N 38°42' W 009°14'0 0.0
2014-Sep-25 19:34N 38°42' W 009°14'0 0.0
2014-Sep-25 18:32N 38°42' W 009°14'0 0.0
2014-Sep-25 09:20N 38°42' W 009°14'0 0.0
2014-Sep-25 08:33N 38°42' W 009°14'0 0.0
2014-Sep-25 06:11N 38°42' W 009°14'0 0.0
2014-Sep-25 05:33N 38°42' W 009°14'0 0.0
2014-Sep-24 21:33N 38°42' W 009°14'0 0.0
2014-Sep-24 15:08N 38°42' W 009°14'2 3.7
2014-Sep-24 14:33N 38°41' W 009°12'  

Dump ship's entire track history